Time;durP1;ratioP1;P1;durP2;ratioP2;P2;SDS_P1;SDS_P2;PMS_P1;PMS_P2;Temp;Humidity;BMP_temperature;BMP_pressure;BME280_temperature;BME280_humidity;BME280_pressure;Samples;Min_cycle;Max_cycle;Signal;HPM_P1;HPM_P2
2022/11/11 00:00:17;;;;;;;18.08;6.97;;;;;;;;;;6245605;23;20016;-69
2022/11/11 00:02:44;;;;;;;18.15;7.00;;;;;;;;;;6247010;23;20012;-69
2022/11/11 00:05:10;;;;;;;22.23;7.22;;;;;;;;;;6219131;23;20075;-69
2022/11/11 00:07:36;;;;;;;22.33;7.80;;;;;;;;;;6219853;22;20016;-70
2022/11/11 00:10:02;;;;;;;22.23;7.57;;;;;;;;;;6220151;23;20722;-69
2022/11/11 00:12:28;;;;;;;23.63;8.70;;;;;;;;;;6246939;23;20335;-69
2022/11/11 00:14:54;;;;;;;20.83;8.63;;;;;;;;;;6218266;23;20024;-69
2022/11/11 00:25:34;;;;;;;19.45;7.70;;;;;;;;;;6219740;23;20024;-69
2022/11/11 00:28:00;;;;;;;28.10;9.32;;;;;;;;;;6219831;23;20012;-69
2022/11/11 00:30:26;;;;;;;18.83;7.95;;;;;;;;;;6246764;23;20115;-69
2022/11/11 00:32:52;;;;;;;17.90;8.15;;;;;;;;;;6246798;23;20054;-69
2022/11/11 00:38:07;;;;;;;19.63;8.48;;;;;;;;;;6219596;23;20051;-69
2022/11/11 00:40:34;;;;;;;24.85;8.32;;;;;;;;;;6219063;23;20089;-69
2022/11/11 00:43:00;;;;;;;18.77;8.45;;;;;;;;;;6220108;23;20454;-69
2022/11/11 00:45:26;;;;;;;21.13;9.60;;;;;;;;;;6246682;23;20016;-69
2022/11/11 00:50:57;;;;;;;18.58;8.88;;;;;;;;;;6219452;23;20012;-69
2022/11/11 00:53:24;;;;;;;19.33;9.15;;;;;;;;;;6219706;23;20084;-69
2022/11/11 00:55:50;;;;;;;25.00;9.00;;;;;;;;;;6246819;23;20065;-69
2022/11/11 00:58:16;;;;;;;28.40;10.27;;;;;;;;;;6246308;23;20087;-69
2022/11/11 01:00:43;;;;;;;27.30;9.43;;;;;;;;;;6246335;23;20020;-69
2022/11/11 01:03:09;;;;;;;29.95;9.55;;;;;;;;;;6246416;23;20042;-69
2022/11/11 01:05:38;;;;;;;23.42;9.85;;;;;;;;;;6246630;23;20062;-69
2022/11/11 01:08:04;;;;;;;23.30;9.45;;;;;;;;;;6219432;23;20044;-69
2022/11/11 01:10:36;;;;;;;20.08;9.25;;;;;;;;;;6219606;23;20043;-69
2022/11/11 01:13:12;;;;;;;21.00;9.55;;;;;;;;;;6219631;23;20012;-69
2022/11/11 01:15:43;;;;;;;26.52;9.75;;;;;;;;;;6199227;23;20317;-69
2022/11/11 01:18:10;;;;;;;18.83;9.30;;;;;;;;;;6184445;23;20017;-69
2022/11/11 01:20:36;;;;;;;25.17;9.75;;;;;;;;;;6186413;23;20096;-69
2022/11/11 01:23:03;;;;;;;19.50;9.52;;;;;;;;;;6184180;23;20024;-69
2022/11/11 01:25:32;;;;;;;26.70;9.93;;;;;;;;;;6184244;23;20344;-69
2022/11/11 01:27:58;;;;;;;24.77;9.82;;;;;;;;;;6186042;23;20067;-69
2022/11/11 01:30:24;;;;;;;24.33;9.68;;;;;;;;;;6184334;23;20027;-69
2022/11/11 01:32:50;;;;;;;19.17;8.70;;;;;;;;;;6159435;23;20017;-69
2022/11/11 01:35:16;;;;;;;20.40;9.52;;;;;;;;;;6184336;23;20021;-69
2022/11/11 01:37:42;;;;;;;25.45;10.38;;;;;;;;;;6183972;23;20056;-69
2022/11/11 01:40:08;;;;;;;21.90;9.68;;;;;;;;;;6159381;23;20037;-69
2022/11/11 01:43:08;;;;;;;19.70;9.18;;;;;;;;;;6185587;23;20514;-69
2022/11/11 01:46:00;;;;;;;22.67;9.70;;;12.00;99.90;;;;;;6183932;23;20048;-69
2022/11/11 01:49:18;;;;;;;22.60;9.90;;;12.10;99.90;;;;;;6184042;23;20402;-69
2022/11/11 01:51:50;;;;;;;24.90;9.70;;;;;;;;;;6128415;23;20040;-69
2022/11/11 01:54:20;;;;;;;16.80;8.95;;;;;;;;;;6184535;23;20017;-69
2022/11/11 01:56:48;;;;;;;24.38;9.82;;;;;;;;;;6184032;23;20100;-69
2022/11/11 01:59:16;;;;;;;19.88;9.45;;;;;;;;;;6183954;23;20016;-69
2022/11/11 02:01:42;;;;;;;17.77;8.70;;;;;;;;;;6135058;23;20032;-69
2022/11/11 02:06:55;;;;;;;23.35;9.88;;;;;;;;;;6183958;23;20036;-69
2022/11/11 02:09:22;;;;;;;20.52;9.57;;;;;;;;;;6184642;23;20057;-69
2022/11/11 02:14:38;;;;;;;24.80;9.13;;;;;;;;;;6187252;23;20025;-69
2022/11/11 02:17:06;;;;;;;24.77;9.95;;;;;;;;;;6218659;23;20035;-69
2022/11/11 02:19:38;;;;;;;19.98;9.60;;;;;;;;;;6245689;23;20020;-69
2022/11/11 02:22:07;;;;;;;21.83;9.40;;;;;;;;;;6245671;23;20012;-69
2022/11/11 02:24:34;;;;;;;24.65;9.10;;;;;;;;;;6218781;23;20050;-69
2022/11/11 02:27:01;;;;;;;21.63;10.25;;;;;;;;;;6218975;23;20100;-69
2022/11/11 02:29:28;;;;;;;19.25;10.57;;;;;;;;;;6193640;23;20038;-69
2022/11/11 02:31:54;;;;;;;22.63;11.38;;;;;;;;;;6218892;23;20016;-69
2022/11/11 02:34:20;;;;;;;25.02;11.80;;;;;;;;;;6246027;23;20103;-68
2022/11/11 02:36:46;;;;;;;27.00;11.40;;;;;;;;;;6193782;23;20023;-68
2022/11/11 02:39:13;;;;;;;25.92;11.63;;;;;;;;;;6218997;23;20027;-68
2022/11/11 02:41:57;;;;;;;24.85;11.07;;;;;;;;;;6218908;23;20024;-68
2022/11/11 02:44:27;;;;;;;26.27;12.25;;;;;;;;;;6218587;23;20020;-68
2022/11/11 02:46:53;;;;;;;26.05;11.77;;;;;;;;;;6218806;23;20047;-67
2022/11/11 02:49:19;;;;;;;28.85;12.52;;;;;;;;;;6245653;23;20176;-68
2022/11/11 02:51:46;;;;;;;29.88;12.15;;;;;;;;;;6218797;23;20016;-68
2022/11/11 02:54:12;;;;;;;26.63;13.07;;;;;;;;;;6218562;23;20330;-68
2022/11/11 02:59:23;;;;;;;34.80;13.70;;;;;;;;;;6218511;23;20020;-68
2022/11/11 03:01:49;;;;;;;32.17;12.70;;;;;;;;;;6218864;23;20012;-68
2022/11/11 03:04:15;;;;;;;30.67;13.73;;;;;;;;;;6220554;23;20053;-68
2022/11/11 03:06:41;;;;;;;24.60;13.10;;;;;;;;;;6221038;23;20013;-67
2022/11/11 03:09:07;;;;;;;26.83;13.38;;;;;;;;;;6247600;22;20039;-68
2022/11/11 03:11:37;;;;;;;27.50;12.68;;;;;;;;;;6220702;23;20023;-68
2022/11/11 03:14:03;;;;;;;27.05;13.18;;;;;;;;;;6220455;23;20012;-68
2022/11/11 03:19:14;;;;;;;27.90;11.98;;;;;;;;;;6220421;23;20021;-68
2022/11/11 03:21:40;;;;;;;23.17;11.82;;;;;;;;;;6220654;23;20012;-68
2022/11/11 03:24:06;;;;;;;26.63;12.07;;;;;;;;;;6220485;23;20069;-68
2022/11/11 03:26:32;;;;;;;23.67;12.27;;;;;;;;;;6247391;23;20031;-68
2022/11/11 03:28:58;;;;;;;25.40;11.90;;;;;;;;;;6247279;23;20434;-68
2022/11/11 03:31:24;;;;;;;27.58;11.63;;;;;;;;;;6220279;23;20012;-68
2022/11/11 03:33:50;;;;;;;29.05;12.18;;;;;;;;;;6220420;23;20044;-68
2022/11/11 03:36:16;;;;;;;20.63;11.30;;;;;;;;;;6195433;23;20461;-68
2022/11/11 03:38:42;;;;;;;28.13;12.13;;;;;;;;;;6247104;23;20390;-68
2022/11/11 03:41:08;;;;;;;28.17;11.65;;;;;;;;;;6220515;23;20024;-68
2022/11/11 03:43:34;;;;;;;25.73;13.73;;;;;;;;;;6247120;23;20016;-68
2022/11/11 03:46:01;;;;;;;33.53;13.00;;;;;;;;;;6246769;23;20055;-68
2022/11/11 03:48:28;;;;;;;27.50;14.38;;;;;;;;;;6194947;23;20052;-67
2022/11/11 03:50:55;;;;;;;24.23;13.60;;;;;;;;;;6220273;23;20406;-67
2022/11/11 03:53:22;;;;;;;28.55;14.95;;;;;;;;;;6247404;23;20166;-68
2022/11/11 03:55:48;;;;;;;35.60;15.48;;;;;;;;;;6220137;23;20020;-68
2022/11/11 03:58:15;;;;;;;32.78;15.43;;;;;;;;;;6247053;23;20012;-68
2022/11/11 04:00:41;;;;;;;31.63;15.23;;;;;;;;;;6220050;23;20050;-68
2022/11/11 04:11:32;;;;;;;32.47;16.48;;;;;;;;;;6218262;23;20070;-68
2022/11/11 04:16:44;;;;;;;39.00;18.38;;;;;;;;;;6218911;23;20355;-67
2022/11/11 04:21:55;;;;;;;39.10;19.63;;;;;;;;;;6219887;23;20091;-68
2022/11/11 04:27:07;;;;;;;41.88;19.15;;;;;;;;;;6219845;23;20025;-67
2022/11/11 04:29:34;;;;;;;35.15;18.48;;;;;;;;;;6219683;23;20020;-68
2022/11/11 04:34:46;;;;;;;40.55;19.45;;;;;;;;;;6219540;23;20426;-68
2022/11/11 04:37:12;;;;;;;39.20;19.23;;;;;;;;;;6219731;23;20019;-67
2022/11/11 04:42:23;;;;;;;37.95;20.20;;;;;;;;;;6219709;23;20070;-67
2022/11/11 04:47:33;;;;;;;37.80;20.17;;;;;;;;;;6219762;23;20016;-67
2022/11/11 04:49:59;;;;;;;34.97;21.17;;;;;;;;;;6220167;23;20015;-68
2022/11/11 04:52:26;;;;;;;39.13;19.13;;;;;;;;;;6219709;23;20012;-67
2022/11/11 04:57:41;;;;;;;42.03;20.85;;;;;;;;;;6246377;23;20471;-68
2022/11/11 05:00:07;;;;;;;43.50;20.85;;;;;;;;;;6219620;23;20465;-68
2022/11/11 05:05:18;;;;;;;43.20;22.30;;;;;;;;;;6198263;23;20346;-67
2022/11/11 05:10:29;;;;;;;43.67;22.15;;;;;;;;;;6219456;23;20016;-68
2022/11/11 05:21:19;;;;;;;47.10;22.17;;;;;;;;;;6246561;23;20312;-68
2022/11/11 05:21:22;;;;;;;48.88;22.90;;;;;;;;;;6223833;23;20012;-67
2022/11/11 05:26:33;;;;;;;43.80;21.80;;;;;;;;;;6218776;23;20024;-67
2022/11/11 05:29:00;;;;;;;36.15;20.88;;;;;;;;;;6219468;23;20016;-68
2022/11/11 05:31:26;;;;;;;48.92;22.70;;;;;;;;;;6246177;23;20012;-68
2022/11/11 05:33:52;;;;;;;46.42;22.45;;;;;;;;;;6246308;23;20097;-68
2022/11/11 05:36:18;;;;;;;49.13;22.40;;;;;;;;;;6246112;23;20345;-67
2022/11/11 05:38:44;;;;;;;42.05;21.65;;;;;;;;;;6219055;23;20020;-67
2022/11/11 05:41:10;;;;;;;47.42;22.45;;;;;;;;;;6219194;23;20042;-68
2022/11/11 05:43:36;;;;;;;47.20;21.80;;;;;;;;;;6246398;23;20023;-67
2022/11/11 05:46:03;;;;;;;43.25;21.77;;;;;;;;;;6219539;23;20016;-68
2022/11/11 05:48:30;;;;;;;44.85;22.45;;;;;;;;;;6219376;23;20016;-67
2022/11/11 05:50:57;;;;;;;54.78;24.50;;;;;;;;;;6245855;23;20016;-67
2022/11/11 05:53:24;;;;;;;49.47;22.08;;;;;;;;;;6219150;23;20013;-68
2022/11/11 05:55:50;;;;;;;46.03;21.75;;;;;;;;;;6194012;23;20126;-68
2022/11/11 05:58:17;;;;;;;44.33;22.92;;;;;;;;;;6218948;23;20070;-68
2022/11/11 06:00:43;;;;;;;47.40;23.42;;;;;;;;;;6245855;23;20081;-67
2022/11/11 06:03:09;;;;;;;56.72;23.88;;;;;;;;;;6219084;23;20012;-68
2022/11/11 06:05:36;;;;;;;47.15;22.42;;;;;;;;;;6218946;23;20046;-68
2022/11/11 06:08:02;;;;;;;47.17;22.77;;;;;;;;;;6218883;23;20438;-67
2022/11/11 06:10:30;;;;;;;47.97;23.77;;;;;;;;;;6193642;23;20015;-68
2022/11/11 06:13:09;;;;;;;45.53;23.30;;;;;;;;;;6194763;23;20058;-68
2022/11/11 06:15:36;;;;;;;49.40;23.30;;;;;;;;;;6245660;23;20024;-68
2022/11/11 06:18:02;;;;;;;48.50;23.67;;;;;;;;;;6245930;23;20035;-68
2022/11/11 06:20:29;;;;;;;46.63;22.35;;;;;;;;;;6218690;23;20453;-67
2022/11/11 06:22:55;;;;;;;59.35;24.38;;;;;;;;;;6219020;23;20019;-67
2022/11/11 06:28:13;;;;;;;48.30;24.48;;;;;;;;;;6217950;23;20024;-67
2022/11/11 06:30:39;;;;;;;43.90;22.50;;;;;;;;;;6217430;23;20324;-68
2022/11/11 06:33:09;;;;;;;53.13;23.83;;;;;;;;;;6217899;23;20016;-67
2022/11/11 06:35:35;;;;;;;48.00;23.98;;;;;;;;;;6218371;23;20461;-68
2022/11/11 06:38:02;;;;;;;53.92;24.60;;;;;;;;;;6246279;23;20464;-67
2022/11/11 06:40:29;;;;;;;47.67;23.15;;;;;;;;;;6221094;23;20020;-67
2022/11/11 06:42:59;;;;;;;55.25;24.13;;;;;;;;;;6248157;23;20012;-68
2022/11/11 06:45:26;;;;;;;50.78;24.30;;;;;;;;;;6221304;23;20024;-67
2022/11/11 06:47:52;;;;;;;53.60;23.30;;;;;;;;;;6247688;23;20008;-67
2022/11/11 06:50:18;;;;;;;49.92;24.20;;;;;;;;;;6220678;23;20342;-68
2022/11/11 06:52:44;;;;;;;57.72;25.58;;;;;;;;;;6220929;23;20015;-67
2022/11/11 06:55:11;;;;;;;46.53;23.65;;;;;;;;;;6220859;23;20020;-68
2022/11/11 06:57:37;;;;;;;44.25;23.58;;;;;;;;;;6220874;23;20537;-69
2022/11/11 07:00:04;;;;;;;50.58;24.75;;;;;;;;;;6195664;23;20016;-69
2022/11/11 07:02:30;;;;;;;44.45;23.67;;;;;;;;;;6247979;23;20023;-69
2022/11/11 07:04:56;;;;;;;47.45;24.17;;;;;;;;;;6196211;23;20022;-69
2022/11/11 07:07:23;;;;;;;45.65;22.98;;;;;;;;;;6247938;23;20072;-69
2022/11/11 07:09:49;;;;;;;51.03;23.60;;;;;;;;;;6247430;22;20011;-69
2022/11/11 07:12:15;;;;;;;50.78;24.10;;;;;;;;;;6193668;23;20062;-69
2022/11/11 07:14:41;;;;;;;50.03;25.08;;;;;;;;;;6218444;23;20407;-69
2022/11/11 07:17:07;;;;;;;44.33;22.30;;;;;;;;;;6217948;23;20058;-69
2022/11/11 07:19:33;;;;;;;42.28;23.48;;;;;;;;;;6218141;23;20016;-69
2022/11/11 07:21:59;;;;;;;53.88;25.42;;;;;;;;;;6218756;23;20016;-69
2022/11/11 07:24:25;;;;;;;51.65;25.02;;;;;;;;;;6218573;23;20046;-69
2022/11/11 07:26:51;;;;;;;47.88;23.17;;;;;;;;;;6218098;23;20111;-69
2022/11/11 07:29:18;;;;;;;50.30;24.65;;;;;;;;;;6219251;23;20015;-69
2022/11/11 07:31:44;;;;;;;50.63;25.33;;;;;;;;;;6245664;23;20083;-69
2022/11/11 07:34:10;;;;;;;43.25;23.10;;;;;;;;;;6218370;23;20012;-68
2022/11/11 07:36:36;;;;;;;49.70;23.38;;;;;;;;;;6244646;23;20052;-67
2022/11/11 07:39:03;;;;;;;48.70;23.88;;;;;;;;;;6245423;23;20020;-68
2022/11/11 07:41:29;;;;;;;46.17;23.65;;;;;;;;;;6192956;23;20047;-68
2022/11/11 07:43:55;;;;;;;49.88;23.38;;;;;;;;;;6193113;23;20082;-69
2022/11/11 07:46:21;;;;;;;42.88;21.85;;;;;;;;;;6244581;23;20513;-69
2022/11/11 07:48:47;;;;;;;50.17;23.33;;;;;;;;;;6244688;23;20024;-69
2022/11/11 07:51:13;;;;;;;50.50;23.85;;;;;;;;;;6244861;23;20028;-69
2022/11/11 07:53:39;;;;;;;49.88;24.58;;;;;;;;;;6218519;23;20134;-69
2022/11/11 07:56:05;;;;;;;50.28;23.77;;;;;;;;;;6217851;23;20028;-69
2022/11/11 07:58:31;;;;;;;55.30;25.35;;;;;;;;;;6246168;23;20022;-69
2022/11/11 08:01:01;;;;;;;50.75;22.98;;;;;;;;;;6219601;23;20435;-69
2022/11/11 08:03:27;;;;;;;42.65;23.27;;;;;;;;;;6219380;23;20020;-72
2022/11/11 08:05:54;;;;;;;43.35;23.58;;;;;;;;;;6219479;23;20019;-72
2022/11/11 08:08:25;;;;;;;46.60;24.05;;;;;;;;;;6194503;23;20023;-69
2022/11/11 08:10:53;;;;;;;42.78;23.08;;;;;;;;;;6246658;23;20019;-69
2022/11/11 08:16:05;;;;;;;51.90;24.58;;;;;;;;;;6219310;23;20020;-69
2022/11/11 08:18:32;;;;;;;48.47;23.83;;;;;;;;;;6219280;23;20089;-69
2022/11/11 08:20:58;;;;;;;56.78;24.70;;;;;;;;;;6194267;23;20020;-69
2022/11/11 08:23:31;;;;;;;50.03;24.80;;;;;;;;;;6194208;23;20074;-69
2022/11/11 08:26:05;;;;;;;48.90;25.15;;;;;;;;;;6218998;23;20070;-69
2022/11/11 08:28:31;;;;;;;50.65;24.85;;;;;;;;;;6193864;23;20008;-69
2022/11/11 08:30:58;;;;;;;52.33;25.88;;;;;;;;;;6245864;23;20106;-69
2022/11/11 08:33:24;;;;;;;48.20;24.90;;;;;;;;;;6218828;23;20020;-70
2022/11/11 08:35:53;;;;;;;50.67;26.13;;;;;;;;;;6219270;23;20016;-69
2022/11/11 08:38:19;;;;;;;51.53;26.70;;;;;;;;;;6219000;23;20081;-69
2022/11/11 08:40:45;;;;;;;56.67;25.08;;;;;;;;;;6219451;23;20438;-69
2022/11/11 08:43:11;;;;;;;53.72;26.92;;;;;;;;;;6219583;23;20020;-70
2022/11/11 08:45:37;;;;;;;51.20;25.48;;;;;;;;;;6219489;23;20016;-69
2022/11/11 08:48:04;;;;;;;52.47;25.80;;;;;;;;;;6246711;23;20039;-69
2022/11/11 08:50:30;;;;;;;48.70;26.35;;;;;;;;;;6219282;23;20338;-69
2022/11/11 08:52:57;;;;;;;54.92;26.38;;;;;;;;;;6194299;23;20430;-69
2022/11/11 08:55:23;;;;;;;52.55;25.85;;;;;;;;;;6219396;23;20020;-69
2022/11/11 08:57:57;;;;;;;46.63;24.65;;;;;;;;;;6246257;23;20012;-69
2022/11/11 09:00:23;;;;;;;52.33;26.10;;;;;;;;;;6219052;23;20020;-69
2022/11/11 09:02:49;;;;;;;47.60;25.63;;;;;;;;;;6219220;23;20090;-69
2022/11/11 09:05:15;;;;;;;49.10;25.80;;;;;;;;;;6218979;23;20100;-69
2022/11/11 09:07:41;;;;;;;56.38;25.90;;;;;;;;;;6219226;22;20020;-69
2022/11/11 09:10:07;;;;;;;53.53;25.52;;;;;;;;;;6246453;23;20008;-69
2022/11/11 09:12:33;;;;;;;48.72;26.52;;;;;;;;;;6219023;23;20095;-69
2022/11/11 09:15:00;;;;;;;55.20;25.73;;;;;;;;;;6219266;23;20016;-69
2022/11/11 09:17:26;;;;;;;48.67;26.67;;;;;;;;;;6218682;23;20026;-69
2022/11/11 09:19:52;;;;;;;58.90;26.25;;;;;;;;;;6218958;23;20052;-69
2022/11/11 09:22:18;;;;;;;56.63;25.95;;;;;;;;;;6218962;23;20096;-69
2022/11/11 09:24:44;;;;;;;50.80;26.27;;;;;;;;;;6219196;23;20035;-69
2022/11/11 09:27:11;;;;;;;52.08;24.88;;;;;;;;;;6219135;23;20016;-69
2022/11/11 09:29:37;;;;;;;50.33;24.98;;;;;;;;;;6219258;23;20091;-69
2022/11/11 09:32:03;;;;;;;50.92;25.60;;;;;;;;;;6245743;23;20158;-69
2022/11/11 09:34:29;;;;;;;47.25;25.30;;;;;;;;;;6193814;23;20012;-69
2022/11/11 09:36:55;;;;;;;52.03;26.77;;;;;;;;;;6193906;23;20027;-69
2022/11/11 09:39:21;;;;;;;58.17;26.77;;;;;;;;;;6193600;23;20058;-69
2022/11/11 09:41:48;;;;;;;56.25;24.08;;;;;;;;;;6219444;23;20012;-69
2022/11/11 09:44:24;;;;;;;55.22;26.13;;;;;;;;;;6245511;23;20023;-69
2022/11/11 09:46:56;;;;;;;54.53;25.38;;;;;;;;;;6219091;23;20048;-69
2022/11/11 09:49:27;;;;;;;50.63;24.88;;;;;;;;;;6193605;23;20022;-69
2022/11/11 09:52:14;;;;;;;56.30;25.63;;;;;;;;;;6218471;23;20023;-69
2022/11/11 09:54:42;;;;;;;54.13;25.48;;;;;;;;;;6218395;23;20055;-69
2022/11/11 09:57:22;;;;;;;57.08;26.92;;;;;;;;;;6245303;23;20019;-69
2022/11/11 09:59:49;;;;;;;48.78;25.10;;;;;;;;;;6218114;23;20009;-69
2022/11/11 10:02:30;;;;;;;54.92;25.77;;;;;;;;;;6218424;23;20035;-69
2022/11/11 10:05:09;;;;;;;48.63;26.27;;;;;;;;;;6244926;23;20446;-69
2022/11/11 10:07:39;;;;;;;47.95;26.10;;;;;;;;;;6218326;22;20012;-69
2022/11/11 10:10:09;;;;;;;50.75;24.90;;;;;;;;;;6218314;23;20012;-69
2022/11/11 10:12:39;;;;;;;54.42;25.65;;;;;;;;;;6244977;23;20472;-69
2022/11/11 10:15:11;;;;;;;47.08;25.08;;;;;;;;;;6217595;23;20445;-69
2022/11/11 10:17:55;;;;;;;47.72;25.65;;;11.60;99.90;;;;;;6218075;23;20341;-69
2022/11/11 10:20:27;;;;;;;52.42;26.80;;;;;;;;;;6218260;23;20027;-69
2022/11/11 10:23:00;;;;;;;50.92;24.65;;;;;;;;;;6245526;23;20383;-69
2022/11/11 10:25:26;;;;;;;51.08;25.35;;;;;;;;;;6218074;23;20078;-69
2022/11/11 10:27:54;;;;;;;47.60;26.50;;;;;;;;;;6218255;23;20016;-69
2022/11/11 10:30:28;;;;;;;51.78;25.88;;;;;;;;;;6245075;23;20091;-69
2022/11/11 10:32:59;;;;;;;47.20;24.95;;;;;;;;;;6218306;23;20008;-69
2022/11/11 10:35:29;;;;;;;50.70;25.38;;;;;;;;;;6218460;23;20119;-69
2022/11/11 10:37:58;;;;;;;46.42;24.63;;;;;;;;;;6245523;23;20008;-69
2022/11/11 10:40:34;;;;;;;41.83;24.52;;;;;;;;;;6245046;23;20091;-69
2022/11/11 10:43:00;;;;;;;45.50;23.13;;;;;;;;;;6218180;23;20067;-68
2022/11/11 10:45:29;;;;;;;45.83;25.08;;;;;;;;;;6217842;23;20023;-69
2022/11/11 10:48:02;;;;;;;45.25;24.63;;;;;;;;;;6217949;23;20048;-69
2022/11/11 10:50:36;;;;;;;48.40;25.35;;;;;;;;;;6218077;23;20031;-69
2022/11/11 10:53:08;;;;;;;45.17;24.35;;;;;;;;;;6217735;23;20024;-69
2022/11/11 10:55:34;;;;;;;42.83;23.98;;;;;;;;;;6218491;23;20019;-69
2022/11/11 10:58:19;;;;;;;40.80;23.05;;;;;;;;;;6218795;23;20020;-68
2022/11/11 11:00:46;;;;;;;44.33;24.42;;;;;;;;;;6245398;23;20102;-69
2022/11/11 11:03:33;;;;;;;45.72;25.00;;;;;;;;;;6218596;23;20016;-69
2022/11/11 11:06:02;;;;;;;44.55;24.45;;;;;;;;;;6218487;23;20020;-69
2022/11/11 11:08:30;;;;;;;41.85;24.50;;;;;;;;;;6193508;23;20019;-69
2022/11/11 11:11:01;;;;;;;46.42;24.63;;;;;;;;;;6218566;23;20012;-69
2022/11/11 11:13:35;;;;;;;42.17;22.80;;;;;;;;;;6245854;23;20058;-69
2022/11/11 11:16:08;;;;;;;45.97;23.92;;;;;;;;;;6217001;23;20055;-69
2022/11/11 11:18:34;;;;;;;48.08;24.27;;;;;;;;;;6244712;23;20071;-69
2022/11/11 11:21:04;;;;;;;48.30;23.08;;;;;;;;;;6218278;23;20016;-69
2022/11/11 11:23:38;;;;;;;44.53;23.55;;;;;;;;;;6193937;23;20020;-69
2022/11/11 11:26:04;;;;;;;41.17;23.90;;;;;;;;;;6247430;23;20016;-69
2022/11/11 11:28:31;;;;;;;44.95;24.02;;;;;;;;;;6219993;23;20023;-69
2022/11/11 11:31:06;;;;;;;48.28;25.40;;;;;;;;;;6219863;23;20312;-69
2022/11/11 11:33:51;;;;;;;42.10;24.40;;;;;;;;;;6220358;23;20043;-69
2022/11/11 11:36:18;;;;;;;49.83;26.30;;;;;;;;;;6247249;23;20092;-69
2022/11/11 11:38:46;;;;;;;47.78;24.10;;;;;;;;;;6219957;23;20027;-69
2022/11/11 11:41:12;;;;;;;45.55;24.17;;;;;;;;;;6220139;23;20016;-69
2022/11/11 11:43:44;;;;;;;45.53;23.77;;;;;;;;;;6220316;23;20038;-69
2022/11/11 11:46:26;;;;;;;41.55;23.10;;;;;;;;;;6246761;23;20347;-69
2022/11/11 11:49:45;;;;;;;46.42;24.75;;;11.80;99.90;;;;;;6219933;23;20016;-70
2022/11/11 11:52:18;;;;;;;46.13;23.02;;;;;;;;;;6100298;23;20014;-69
2022/11/11 11:54:53;;;;;;;46.65;24.42;;;;;;;;;;6243383;23;20016;-68
2022/11/11 11:57:31;;;;;;;42.15;22.92;;;;;;;;;;6220089;23;20094;-69
2022/11/11 11:59:57;;;;;;;45.55;24.48;;;;;;;;;;6246136;23;20023;-69
2022/11/11 12:02:33;;;;;;;40.80;23.20;;;;;;;;;;6219952;23;20023;-69
2022/11/11 12:05:10;;;;;;;47.88;24.30;;;;;;;;;;6219708;23;20051;-69
2022/11/11 12:07:54;;;;;;;52.33;23.45;;;;;;;;;;6246712;23;20016;-69
2022/11/11 12:10:27;;;;;;;44.22;23.65;;;;;;;;;;6194843;23;20028;-69
2022/11/11 12:13:05;;;;;;;48.72;25.15;;;;;;;;;;6246608;23;20016;-69
2022/11/11 12:15:38;;;;;;;42.78;23.60;;;;;;;;;;6246684;23;20074;-69
2022/11/11 12:18:23;;;;;;;41.30;22.83;;;;;;;;;;6246783;23;20094;-69
2022/11/11 12:20:59;;;;;;;47.58;24.00;;;;;;;;;;6194755;23;20019;-69
2022/11/11 12:23:50;;;;;;;46.22;23.88;;;11.70;99.90;;;;;;6219792;23;20024;-69
2022/11/11 12:26:20;;;;;;;41.90;22.75;;;;;;;;;;6219578;23;20020;-69
2022/11/11 12:29:21;;;;;;;48.65;23.08;;;;;;;;;;6219679;23;20015;-69
2022/11/11 12:32:14;;;;;;;44.67;24.58;;;;;;;;;;6099677;23;20018;-69
2022/11/11 12:34:55;;;;;;;44.42;23.83;;;;;;;;;;6183091;23;20387;-68
2022/11/11 12:37:27;;;;;;;46.55;23.02;;;;;;;;;;6216936;23;20083;-73
2022/11/11 12:40:11;;;;;;;46.75;23.58;;;11.90;99.90;;;;;;6218193;23;20039;-68
2022/11/11 12:42:37;;;;;;;43.80;22.52;;;;;;;;;;6218905;23;20090;-68
2022/11/11 12:45:21;;;;;;;44.35;23.13;;;;;;;;;;6216288;23;20059;-68
2022/11/11 12:47:47;;;;;;;45.88;23.45;;;;;;;;;;6218020;23;20015;-68
2022/11/11 12:50:23;;;;;;;46.47;23.95;;;;;;;;;;6218405;23;20012;-68
2022/11/11 12:53:21;;;;;;;45.60;23.25;;;12.00;99.90;;;;;;6219612;23;20477;-68
2022/11/11 12:55:53;;;;;;;39.65;21.98;;;;;;;;;;6244874;22;20446;-68
2022/11/11 12:58:25;;;;;;;42.65;21.83;;;;;;;;;;6246448;23;20054;-68
2022/11/11 13:00:57;;;;;;;42.58;22.83;;;;;;;;;;6219749;23;20016;-68
2022/11/11 13:03:46;;;;;;;50.78;24.52;;;;;;;;;;6219703;23;20031;-68
2022/11/11 13:06:25;;;;;;;43.80;21.98;;;;;;;;;;6246106;23;20016;-68
2022/11/11 13:08:58;;;;;;;36.45;20.60;;;;;;;;;;6246361;22;20337;-68
2022/11/11 13:11:42;;;;;;;43.55;22.30;;;;;;;;;;6219527;23;20016;-68
2022/11/11 13:14:27;;;;;;;43.05;22.25;;;;;;;;;;6219418;23;20018;-68
2022/11/11 13:16:59;;;;;;;42.90;21.58;;;;;;;;;;6219076;23;20027;-68
2022/11/11 13:19:44;;;;;;;45.70;21.75;;;;;;;;;;6246288;23;20050;-68
2022/11/11 13:22:17;;;;;;;41.33;21.30;;;;;;;;;;6246493;23;20008;-68
2022/11/11 13:24:43;;;;;;;40.85;23.42;;;;;;;;;;6219175;23;20016;-68
2022/11/11 13:27:15;;;;;;;37.35;20.73;;;;;;;;;;6219117;23;20016;-68
2022/11/11 13:30:03;;;;;;;42.22;23.05;;;;;;;;;;6219251;23;20016;-68
2022/11/11 13:32:37;;;;;;;42.97;20.95;;;;;;;;;;6219138;23;20016;-68
2022/11/11 13:35:10;;;;;;;40.80;21.08;;;;;;;;;;6246298;23;20012;-68
2022/11/11 13:37:36;;;;;;;36.13;19.92;;;;;;;;;;6219094;23;20389;-68
2022/11/11 13:40:05;;;;;;;44.88;22.25;;;;;;;;;;6219855;23;20045;-68
2022/11/11 13:42:36;;;;;;;43.00;20.90;;;;;;;;;;6194278;23;20012;-68
2022/11/11 13:45:03;;;;;;;38.75;20.83;;;;;;;;;;6219074;23;20016;-68
2022/11/11 13:47:33;;;;;;;37.50;20.00;;;;;;;;;;6245741;23;20012;-68
2022/11/11 13:50:02;;;;;;;39.83;21.05;;;;;;;;;;6218982;23;20048;-68
2022/11/11 13:52:32;;;;;;;42.72;21.65;;;;;;;;;;6193907;23;20016;-68
2022/11/11 13:55:00;;;;;;;39.85;21.35;;;;;;;;;;6219016;23;20012;-68
2022/11/11 13:57:30;;;;;;;40.83;21.73;;;;;;;;;;6218959;23;20018;-68
2022/11/11 14:00:01;;;;;;;40.90;21.55;;;;;;;;;;6246361;23;20058;-68
2022/11/11 14:02:31;;;;;;;39.60;21.23;;;;;;;;;;6218846;23;20047;-68
2022/11/11 14:05:01;;;;;;;34.95;19.85;;;;;;;;;;6218848;23;20008;-68
2022/11/11 14:07:48;;;;;;;35.70;19.23;;;;;;;;;;6219053;23;20016;-68
2022/11/11 14:10:17;;;;;;;33.53;19.05;;;;;;;;;;6246062;23;20047;-68
2022/11/11 14:12:43;;;;;;;41.72;20.50;;;;;;;;;;6218915;23;20093;-68
2022/11/11 14:15:37;;;;;;;37.47;19.52;;;11.70;99.90;;;;;;6193904;23;20063;-68
2022/11/11 14:18:18;;;;;;;40.63;20.15;;;;;;;;;;6218704;23;20024;-68
2022/11/11 14:20:48;;;;;;;39.85;21.17;;;;;;;;;;6218878;23;20067;-68
2022/11/11 14:23:17;;;;;;;39.47;20.40;;;;;;;;;;6218925;23;20020;-68
2022/11/11 14:25:51;;;;;;;36.38;20.58;;;;;;;;;;6218787;23;20477;-68
2022/11/11 14:28:28;;;;;;;37.35;20.50;;;;;;;;;;6218842;23;20024;-68
2022/11/11 14:30:55;;;;;;;36.15;20.85;;;;;;;;;;6245727;23;20435;-68
2022/11/11 14:33:42;;;;;;;35.85;20.02;;;;;;;;;;6218660;23;20324;-68
2022/11/11 14:36:19;;;;;;;33.88;19.92;;;;;;;;;;6218862;23;20016;-68
2022/11/11 14:38:57;;;;;;;41.08;20.08;;;;;;;;;;6245549;23;20055;-68
2022/11/11 14:41:42;;;;;;;41.67;20.95;;;;;;;;;;6218795;23;20017;-68
2022/11/11 14:44:27;;;;;;;38.70;21.45;;;;;;;;;;6218820;23;20012;-68
2022/11/11 14:47:02;;;;;;;42.20;21.25;;;;;;;;;;6218471;23;20048;-68
2022/11/11 14:49:44;;;;;;;39.60;21.30;;;;;;;;;;6218626;23;20135;-68
2022/11/11 14:52:25;;;;;;;40.78;21.08;;;;;;;;;;6219162;23;20067;-68
2022/11/11 14:55:10;;;;;;;34.67;19.02;;;;;;;;;;6218560;23;20047;-68
2022/11/11 14:57:39;;;;;;;35.80;20.17;;;;;;;;;;6218552;23;20016;-68
2022/11/11 15:00:22;;;;;;;35.53;18.95;;;;;;;;;;6247084;23;20511;-68
2022/11/11 15:02:54;;;;;;;34.78;18.00;;;;;;;;;;6220713;23;20050;-68
2022/11/11 15:05:25;;;;;;;33.45;18.95;;;;;;;;;;6247832;23;20023;-68
2022/11/11 15:07:51;;;;;;;34.85;18.27;;;;;;;;;;6220548;22;20383;-68
2022/11/11 15:10:25;;;;;;;36.63;19.38;;;;;;;;;;6220556;23;20016;-68
2022/11/11 15:13:05;;;;;;;34.00;19.02;;;;;;;;;;6195649;23;20085;-68
2022/11/11 15:15:35;;;;;;;35.67;19.38;;;;;;;;;;6220522;23;20443;-68
2022/11/11 15:18:04;;;;;;;35.95;20.35;;;;;;;;;;6247209;23;20103;-68
2022/11/11 15:21:29;;;;;;;33.85;20.20;;;11.70;99.90;;;;;;6220511;23;20047;-68
2022/11/11 15:24:04;;;;;;;39.17;20.92;;;;;;;;;;6206113;23;20139;-68
2022/11/11 15:26:43;;;;;;;36.88;20.17;;;;;;;;;;6247328;23;20338;-68
2022/11/11 15:29:17;;;;;;;36.88;20.88;;;;;;;;;;6220389;23;20102;-68
2022/11/11 15:31:49;;;;;;;36.03;19.15;;;;;;;;;;6220408;23;20453;-68
2022/11/11 15:34:24;;;;;;;34.08;20.42;;;;;;;;;;6220379;23;20016;-68
2022/11/11 15:36:50;;;;;;;35.38;19.80;;;;;;;;;;6219549;23;20023;-68
2022/11/11 15:39:18;;;;;;;35.92;19.95;;;;;;;;;;6219734;23;20023;-68
2022/11/11 15:41:46;;;;;;;34.47;21.23;;;;;;;;;;6194431;23;20015;-68
2022/11/11 15:44:19;;;;;;;31.83;19.33;;;;;;;;;;6220220;23;20023;-68
2022/11/11 15:46:45;;;;;;;35.22;19.85;;;;;;;;;;6218691;23;20020;-68